sensor_id;sensor_type;location;lat;lon;timestamp;P1;durP1;ratioP1;P2;durP2;ratioP2
23394;SDS011;11870;53.084;18.206;2023-07-31T00:02:16;3.35;;;2.40;;
23394;SDS011;11870;53.084;18.206;2023-07-31T00:04:42;6.45;;;2.67;;
23394;SDS011;11870;53.084;18.206;2023-07-31T00:07:08;3.67;;;2.33;;
23394;SDS011;11870;53.084;18.206;2023-07-31T00:09:34;4.97;;;2.70;;
23394;SDS011;11870;53.084;18.206;2023-07-31T00:12:00;3.53;;;2.60;;
23394;SDS011;11870;53.084;18.206;2023-07-31T00:14:25;3.78;;;2.50;;
23394;SDS011;11870;53.084;18.206;2023-07-31T00:16:52;3.15;;;2.28;;
23394;SDS011;11870;53.084;18.206;2023-07-31T00:19:17;3.95;;;2.88;;
23394;SDS011;11870;53.084;18.206;2023-07-31T00:21:44;4.45;;;2.63;;
23394;SDS011;11870;53.084;18.206;2023-07-31T00:24:10;5.10;;;2.70;;
23394;SDS011;11870;53.084;18.206;2023-07-31T00:26:36;6.60;;;3.08;;
23394;SDS011;11870;53.084;18.206;2023-07-31T00:29:01;6.03;;;2.75;;
23394;SDS011;11870;53.084;18.206;2023-07-31T00:31:27;4.65;;;2.88;;
23394;SDS011;11870;53.084;18.206;2023-07-31T00:33:53;5.32;;;2.80;;
23394;SDS011;11870;53.084;18.206;2023-07-31T00:36:19;7.05;;;2.92;;
23394;SDS011;11870;53.084;18.206;2023-07-31T00:38:45;4.55;;;2.83;;
23394;SDS011;11870;53.084;18.206;2023-07-31T00:41:11;4.07;;;2.88;;
23394;SDS011;11870;53.084;18.206;2023-07-31T00:43:37;5.55;;;3.00;;
23394;SDS011;11870;53.084;18.206;2023-07-31T00:46:03;5.07;;;3.22;;
23394;SDS011;11870;53.084;18.206;2023-07-31T00:48:30;3.75;;;2.55;;
23394;SDS011;11870;53.084;18.206;2023-07-31T00:50:57;4.70;;;2.40;;
23394;SDS011;11870;53.084;18.206;2023-07-31T00:53:24;4.38;;;2.85;;
23394;SDS011;11870;53.084;18.206;2023-07-31T00:55:50;4.38;;;2.60;;
23394;SDS011;11870;53.084;18.206;2023-07-31T00:58:17;6.45;;;2.75;;
23394;SDS011;11870;53.084;18.206;2023-07-31T01:00:43;3.97;;;2.90;;
23394;SDS011;11870;53.084;18.206;2023-07-31T01:03:09;4.45;;;2.70;;
23394;SDS011;11870;53.084;18.206;2023-07-31T01:05:39;6.13;;;2.70;;
23394;SDS011;11870;53.084;18.206;2023-07-31T01:11:02;4.78;;;2.85;;
23394;SDS011;11870;53.084;18.206;2023-07-31T01:13:52;3.28;;;2.90;;
23394;SDS011;11870;53.084;18.206;2023-07-31T01:16:20;5.65;;;3.05;;
23394;SDS011;11870;53.084;18.206;2023-07-31T01:18:46;6.47;;;3.00;;
23394;SDS011;11870;53.084;18.206;2023-07-31T01:24:17;5.22;;;2.70;;
23394;SDS011;11870;53.084;18.206;2023-07-31T01:26:57;5.68;;;2.88;;
23394;SDS011;11870;53.084;18.206;2023-07-31T01:32:17;4.55;;;2.78;;
23394;SDS011;11870;53.084;18.206;2023-07-31T01:34:44;7.07;;;2.92;;
23394;SDS011;11870;53.084;18.206;2023-07-31T01:37:11;4.50;;;2.58;;
23394;SDS011;11870;53.084;18.206;2023-07-31T01:39:36;4.10;;;2.92;;
23394;SDS011;11870;53.084;18.206;2023-07-31T01:42:02;3.55;;;2.47;;
23394;SDS011;11870;53.084;18.206;2023-07-31T01:44:28;6.65;;;3.00;;
23394;SDS011;11870;53.084;18.206;2023-07-31T01:46:55;5.07;;;3.13;;
23394;SDS011;11870;53.084;18.206;2023-07-31T01:49:20;6.38;;;2.92;;
23394;SDS011;11870;53.084;18.206;2023-07-31T01:51:46;3.88;;;2.95;;
23394;SDS011;11870;53.084;18.206;2023-07-31T01:54:12;7.28;;;2.83;;
23394;SDS011;11870;53.084;18.206;2023-07-31T01:56:38;5.63;;;3.25;;
23394;SDS011;11870;53.084;18.206;2023-07-31T01:59:04;3.35;;;2.60;;
23394;SDS011;11870;53.084;18.206;2023-07-31T02:01:30;4.45;;;3.00;;
23394;SDS011;11870;53.084;18.206;2023-07-31T02:03:57;4.88;;;2.85;;
23394;SDS011;11870;53.084;18.206;2023-07-31T02:06:23;4.90;;;2.90;;
23394;SDS011;11870;53.084;18.206;2023-07-31T02:08:49;5.72;;;3.30;;
23394;SDS011;11870;53.084;18.206;2023-07-31T02:11:15;4.53;;;3.13;;
23394;SDS011;11870;53.084;18.206;2023-07-31T02:13:41;4.85;;;3.03;;
23394;SDS011;11870;53.084;18.206;2023-07-31T02:16:07;5.53;;;3.10;;
23394;SDS011;11870;53.084;18.206;2023-07-31T02:18:33;6.65;;;3.60;;
23394;SDS011;11870;53.084;18.206;2023-07-31T02:20:59;5.57;;;3.50;;
23394;SDS011;11870;53.084;18.206;2023-07-31T02:23:24;3.60;;;2.60;;
23394;SDS011;11870;53.084;18.206;2023-07-31T02:25:50;4.68;;;2.75;;
23394;SDS011;11870;53.084;18.206;2023-07-31T02:28:16;4.35;;;3.08;;
23394;SDS011;11870;53.084;18.206;2023-07-31T02:30:45;8.68;;;3.20;;
23394;SDS011;11870;53.084;18.206;2023-07-31T02:33:11;5.95;;;3.22;;
23394;SDS011;11870;53.084;18.206;2023-07-31T02:35:37;6.97;;;3.22;;
23394;SDS011;11870;53.084;18.206;2023-07-31T02:38:03;5.50;;;3.72;;
23394;SDS011;11870;53.084;18.206;2023-07-31T02:40:29;8.57;;;3.38;;
23394;SDS011;11870;53.084;18.206;2023-07-31T02:42:55;9.15;;;3.20;;
23394;SDS011;11870;53.084;18.206;2023-07-31T02:45:21;8.55;;;3.53;;
23394;SDS011;11870;53.084;18.206;2023-07-31T02:47:46;7.75;;;3.50;;
23394;SDS011;11870;53.084;18.206;2023-07-31T02:50:12;8.57;;;3.40;;
23394;SDS011;11870;53.084;18.206;2023-07-31T02:52:38;6.25;;;3.80;;
23394;SDS011;11870;53.084;18.206;2023-07-31T02:55:05;6.03;;;3.78;;
23394;SDS011;11870;53.084;18.206;2023-07-31T02:57:31;5.85;;;3.33;;
23394;SDS011;11870;53.084;18.206;2023-07-31T02:59:57;5.43;;;4.03;;
23394;SDS011;11870;53.084;18.206;2023-07-31T03:02:23;5.60;;;4.10;;
23394;SDS011;11870;53.084;18.206;2023-07-31T03:04:49;6.18;;;4.00;;
23394;SDS011;11870;53.084;18.206;2023-07-31T03:07:14;7.47;;;4.25;;
23394;SDS011;11870;53.084;18.206;2023-07-31T03:09:41;8.35;;;3.97;;
23394;SDS011;11870;53.084;18.206;2023-07-31T03:12:07;7.53;;;3.75;;
23394;SDS011;11870;53.084;18.206;2023-07-31T03:14:33;6.13;;;4.10;;
23394;SDS011;11870;53.084;18.206;2023-07-31T03:16:59;6.40;;;4.38;;
23394;SDS011;11870;53.084;18.206;2023-07-31T03:19:25;5.70;;;3.90;;
23394;SDS011;11870;53.084;18.206;2023-07-31T03:21:51;6.35;;;4.20;;
23394;SDS011;11870;53.084;18.206;2023-07-31T03:24:17;7.15;;;4.43;;
23394;SDS011;11870;53.084;18.206;2023-07-31T03:26:43;6.45;;;4.05;;
23394;SDS011;11870;53.084;18.206;2023-07-31T03:29:09;6.22;;;4.07;;
23394;SDS011;11870;53.084;18.206;2023-07-31T03:31:34;8.52;;;4.13;;
23394;SDS011;11870;53.084;18.206;2023-07-31T03:34:00;7.35;;;4.55;;
23394;SDS011;11870;53.084;18.206;2023-07-31T03:36:26;6.28;;;4.43;;
23394;SDS011;11870;53.084;18.206;2023-07-31T03:38:52;10.48;;;4.30;;
23394;SDS011;11870;53.084;18.206;2023-07-31T03:41:18;10.63;;;4.78;;
23394;SDS011;11870;53.084;18.206;2023-07-31T03:43:45;5.63;;;4.13;;
23394;SDS011;11870;53.084;18.206;2023-07-31T03:46:14;5.85;;;4.13;;
23394;SDS011;11870;53.084;18.206;2023-07-31T03:48:40;5.32;;;3.72;;
23394;SDS011;11870;53.084;18.206;2023-07-31T03:51:06;6.85;;;3.30;;
23394;SDS011;11870;53.084;18.206;2023-07-31T03:53:32;6.38;;;3.03;;
23394;SDS011;11870;53.084;18.206;2023-07-31T03:55:57;6.45;;;3.05;;
23394;SDS011;11870;53.084;18.206;2023-07-31T03:58:24;6.30;;;2.80;;
23394;SDS011;11870;53.084;18.206;2023-07-31T04:00:49;4.30;;;2.55;;
23394;SDS011;11870;53.084;18.206;2023-07-31T04:03:16;6.63;;;2.60;;
23394;SDS011;11870;53.084;18.206;2023-07-31T04:05:41;3.97;;;2.60;;
23394;SDS011;11870;53.084;18.206;2023-07-31T04:08:07;3.60;;;2.42;;
23394;SDS011;11870;53.084;18.206;2023-07-31T04:10:33;6.07;;;3.00;;
23394;SDS011;11870;53.084;18.206;2023-07-31T04:13:00;3.55;;;2.30;;
23394;SDS011;11870;53.084;18.206;2023-07-31T04:15:26;4.45;;;2.30;;
23394;SDS011;11870;53.084;18.206;2023-07-31T04:17:52;2.33;;;2.08;;
23394;SDS011;11870;53.084;18.206;2023-07-31T04:20:18;3.45;;;2.30;;
23394;SDS011;11870;53.084;18.206;2023-07-31T04:22:44;8.60;;;2.65;;
23394;SDS011;11870;53.084;18.206;2023-07-31T04:25:10;4.75;;;2.40;;
23394;SDS011;11870;53.084;18.206;2023-07-31T04:27:36;3.42;;;2.28;;
23394;SDS011;11870;53.084;18.206;2023-07-31T04:30:01;6.45;;;2.20;;
23394;SDS011;11870;53.084;18.206;2023-07-31T04:32:28;5.50;;;3.08;;
23394;SDS011;11870;53.084;18.206;2023-07-31T04:34:55;5.28;;;2.50;;
23394;SDS011;11870;53.084;18.206;2023-07-31T04:37:21;6.40;;;2.65;;
23394;SDS011;11870;53.084;18.206;2023-07-31T04:39:46;3.38;;;2.30;;
23394;SDS011;11870;53.084;18.206;2023-07-31T04:42:12;3.70;;;2.30;;
23394;SDS011;11870;53.084;18.206;2023-07-31T04:44:38;3.95;;;2.13;;
23394;SDS011;11870;53.084;18.206;2023-07-31T04:47:04;4.07;;;2.38;;
23394;SDS011;11870;53.084;18.206;2023-07-31T04:49:31;4.47;;;2.30;;
23394;SDS011;11870;53.084;18.206;2023-07-31T04:51:58;9.35;;;2.00;;
23394;SDS011;11870;53.084;18.206;2023-07-31T04:54:23;3.58;;;1.95;;
23394;SDS011;11870;53.084;18.206;2023-07-31T04:56:49;5.20;;;2.03;;
23394;SDS011;11870;53.084;18.206;2023-07-31T04:59:15;3.97;;;2.00;;
23394;SDS011;11870;53.084;18.206;2023-07-31T05:01:41;3.45;;;2.05;;
23394;SDS011;11870;53.084;18.206;2023-07-31T05:04:08;2.70;;;1.88;;
23394;SDS011;11870;53.084;18.206;2023-07-31T05:06:34;4.60;;;2.00;;
23394;SDS011;11870;53.084;18.206;2023-07-31T05:08:59;4.45;;;1.90;;
23394;SDS011;11870;53.084;18.206;2023-07-31T05:11:25;3.22;;;1.95;;
23394;SDS011;11870;53.084;18.206;2023-07-31T05:13:51;3.75;;;1.92;;
23394;SDS011;11870;53.084;18.206;2023-07-31T05:16:17;4.22;;;1.80;;
23394;SDS011;11870;53.084;18.206;2023-07-31T05:18:43;2.67;;;1.60;;
23394;SDS011;11870;53.084;18.206;2023-07-31T05:21:09;4.15;;;2.00;;
23394;SDS011;11870;53.084;18.206;2023-07-31T05:23:35;6.25;;;1.60;;
23394;SDS011;11870;53.084;18.206;2023-07-31T05:26:07;3.00;;;1.52;;
23394;SDS011;11870;53.084;18.206;2023-07-31T05:28:35;3.15;;;1.58;;
23394;SDS011;11870;53.084;18.206;2023-07-31T05:31:02;3.67;;;1.60;;
23394;SDS011;11870;53.084;18.206;2023-07-31T05:33:28;3.85;;;1.70;;
23394;SDS011;11870;53.084;18.206;2023-07-31T05:35:55;2.38;;;1.70;;
23394;SDS011;11870;53.084;18.206;2023-07-31T05:38:20;5.03;;;1.60;;
23394;SDS011;11870;53.084;18.206;2023-07-31T05:40:47;4.70;;;1.70;;
23394;SDS011;11870;53.084;18.206;2023-07-31T05:43:13;3.65;;;1.77;;
23394;SDS011;11870;53.084;18.206;2023-07-31T05:45:39;2.40;;;1.50;;
23394;SDS011;11870;53.084;18.206;2023-07-31T05:48:07;5.43;;;1.92;;
23394;SDS011;11870;53.084;18.206;2023-07-31T05:50:33;3.70;;;1.92;;
23394;SDS011;11870;53.084;18.206;2023-07-31T05:52:59;2.85;;;1.55;;
23394;SDS011;11870;53.084;18.206;2023-07-31T05:55:25;3.05;;;1.70;;
23394;SDS011;11870;53.084;18.206;2023-07-31T05:57:54;3.28;;;1.70;;
23394;SDS011;11870;53.084;18.206;2023-07-31T06:00:20;3.25;;;1.70;;
23394;SDS011;11870;53.084;18.206;2023-07-31T06:02:49;3.92;;;1.98;;
23394;SDS011;11870;53.084;18.206;2023-07-31T06:05:15;2.30;;;1.60;;
23394;SDS011;11870;53.084;18.206;2023-07-31T06:07:41;6.30;;;1.80;;
23394;SDS011;11870;53.084;18.206;2023-07-31T06:10:07;4.82;;;1.95;;
23394;SDS011;11870;53.084;18.206;2023-07-31T06:12:33;3.33;;;1.73;;
23394;SDS011;11870;53.084;18.206;2023-07-31T06:15:00;5.20;;;1.63;;
23394;SDS011;11870;53.084;18.206;2023-07-31T06:17:27;4.97;;;1.40;;
23394;SDS011;11870;53.084;18.206;2023-07-31T06:19:53;2.70;;;1.67;;
23394;SDS011;11870;53.084;18.206;2023-07-31T06:22:19;6.35;;;1.80;;
23394;SDS011;11870;53.084;18.206;2023-07-31T06:24:46;3.03;;;1.67;;
23394;SDS011;11870;53.084;18.206;2023-07-31T06:27:12;3.38;;;1.70;;
23394;SDS011;11870;53.084;18.206;2023-07-31T06:29:38;3.85;;;1.92;;
23394;SDS011;11870;53.084;18.206;2023-07-31T06:32:03;4.05;;;1.70;;
23394;SDS011;11870;53.084;18.206;2023-07-31T06:34:30;3.25;;;1.90;;
23394;SDS011;11870;53.084;18.206;2023-07-31T06:36:56;3.88;;;1.60;;
23394;SDS011;11870;53.084;18.206;2023-07-31T06:39:22;2.83;;;1.77;;
23394;SDS011;11870;53.084;18.206;2023-07-31T06:41:48;4.53;;;2.10;;
23394;SDS011;11870;53.084;18.206;2023-07-31T06:44:14;3.72;;;1.73;;
23394;SDS011;11870;53.084;18.206;2023-07-31T06:46:40;4.88;;;1.80;;
23394;SDS011;11870;53.084;18.206;2023-07-31T06:49:06;2.17;;;1.45;;
23394;SDS011;11870;53.084;18.206;2023-07-31T06:51:32;4.13;;;1.83;;
23394;SDS011;11870;53.084;18.206;2023-07-31T06:53:58;3.15;;;1.67;;
23394;SDS011;11870;53.084;18.206;2023-07-31T06:56:24;3.75;;;1.65;;
23394;SDS011;11870;53.084;18.206;2023-07-31T06:58:51;3.00;;;1.55;;
23394;SDS011;11870;53.084;18.206;2023-07-31T07:01:17;4.43;;;1.50;;
23394;SDS011;11870;53.084;18.206;2023-07-31T07:03:43;2.67;;;1.50;;
23394;SDS011;11870;53.084;18.206;2023-07-31T07:06:09;3.55;;;1.55;;
23394;SDS011;11870;53.084;18.206;2023-07-31T07:08:35;4.07;;;1.98;;
23394;SDS011;11870;53.084;18.206;2023-07-31T07:11:01;2.92;;;1.65;;
23394;SDS011;11870;53.084;18.206;2023-07-31T07:13:27;2.10;;;1.50;;
23394;SDS011;11870;53.084;18.206;2023-07-31T07:15:53;5.20;;;1.95;;
23394;SDS011;11870;53.084;18.206;2023-07-31T07:18:19;4.75;;;1.98;;
23394;SDS011;11870;53.084;18.206;2023-07-31T07:20:49;2.75;;;1.58;;
23394;SDS011;11870;53.084;18.206;2023-07-31T07:23:17;4.70;;;1.75;;
23394;SDS011;11870;53.084;18.206;2023-07-31T07:25:44;6.30;;;2.10;;
23394;SDS011;11870;53.084;18.206;2023-07-31T07:28:11;4.88;;;2.00;;
23394;SDS011;11870;53.084;18.206;2023-07-31T07:30:37;3.08;;;1.88;;
23394;SDS011;11870;53.084;18.206;2023-07-31T07:33:03;4.28;;;1.55;;
23394;SDS011;11870;53.084;18.206;2023-07-31T07:35:29;1.90;;;1.70;;
23394;SDS011;11870;53.084;18.206;2023-07-31T07:37:55;6.18;;;2.55;;
23394;SDS011;11870;53.084;18.206;2023-07-31T07:40:22;4.97;;;1.80;;
23394;SDS011;11870;53.084;18.206;2023-07-31T07:42:48;3.20;;;1.65;;
23394;SDS011;11870;53.084;18.206;2023-07-31T07:45:15;4.32;;;1.63;;
23394;SDS011;11870;53.084;18.206;2023-07-31T07:47:41;4.30;;;2.08;;
23394;SDS011;11870;53.084;18.206;2023-07-31T07:50:08;2.83;;;1.70;;
23394;SDS011;11870;53.084;18.206;2023-07-31T07:52:34;4.57;;;1.80;;
23394;SDS011;11870;53.084;18.206;2023-07-31T07:55:00;4.15;;;2.05;;
23394;SDS011;11870;53.084;18.206;2023-07-31T07:57:26;3.83;;;1.85;;
23394;SDS011;11870;53.084;18.206;2023-07-31T07:59:52;3.50;;;1.73;;
23394;SDS011;11870;53.084;18.206;2023-07-31T08:02:18;3.22;;;1.60;;
23394;SDS011;11870;53.084;18.206;2023-07-31T08:04:44;3.95;;;2.00;;
23394;SDS011;11870;53.084;18.206;2023-07-31T08:07:11;3.65;;;1.48;;
23394;SDS011;11870;53.084;18.206;2023-07-31T08:09:40;5.68;;;1.98;;
23394;SDS011;11870;53.084;18.206;2023-07-31T08:12:06;3.67;;;1.73;;
23394;SDS011;11870;53.084;18.206;2023-07-31T08:14:32;2.65;;;1.40;;
23394;SDS011;11870;53.084;18.206;2023-07-31T08:16:59;2.90;;;1.70;;
23394;SDS011;11870;53.084;18.206;2023-07-31T08:19:25;2.83;;;1.40;;
23394;SDS011;11870;53.084;18.206;2023-07-31T08:21:52;4.03;;;1.45;;
23394;SDS011;11870;53.084;18.206;2023-07-31T08:24:17;4.20;;;1.67;;
23394;SDS011;11870;53.084;18.206;2023-07-31T08:26:43;4.28;;;1.50;;
23394;SDS011;11870;53.084;18.206;2023-07-31T08:29:09;2.60;;;1.38;;
23394;SDS011;11870;53.084;18.206;2023-07-31T08:31:35;3.78;;;1.42;;
23394;SDS011;11870;53.084;18.206;2023-07-31T08:34:01;3.63;;;1.30;;
23394;SDS011;11870;53.084;18.206;2023-07-31T08:36:27;2.65;;;1.55;;
23394;SDS011;11870;53.084;18.206;2023-07-31T08:38:53;2.85;;;1.40;;
23394;SDS011;11870;53.084;18.206;2023-07-31T08:41:20;2.83;;;1.33;;
23394;SDS011;11870;53.084;18.206;2023-07-31T08:43:46;3.08;;;1.40;;
23394;SDS011;11870;53.084;18.206;2023-07-31T08:46:15;3.45;;;1.42;;
23394;SDS011;11870;53.084;18.206;2023-07-31T08:48:41;3.83;;;1.30;;
23394;SDS011;11870;53.084;18.206;2023-07-31T08:51:08;3.15;;;1.65;;
23394;SDS011;11870;53.084;18.206;2023-07-31T08:53:34;1.63;;;1.20;;
23394;SDS011;11870;53.084;18.206;2023-07-31T08:56:00;4.22;;;1.42;;
23394;SDS011;11870;53.084;18.206;2023-07-31T08:58:27;3.00;;;1.58;;
23394;SDS011;11870;53.084;18.206;2023-07-31T09:00:57;3.42;;;1.45;;
23394;SDS011;11870;53.084;18.206;2023-07-31T09:03:26;1.90;;;1.17;;
23394;SDS011;11870;53.084;18.206;2023-07-31T09:05:52;3.80;;;1.40;;
23394;SDS011;11870;53.084;18.206;2023-07-31T09:08:20;2.38;;;1.40;;
23394;SDS011;11870;53.084;18.206;2023-07-31T09:10:47;3.45;;;1.45;;
23394;SDS011;11870;53.084;18.206;2023-07-31T09:13:15;3.15;;;1.60;;
23394;SDS011;11870;53.084;18.206;2023-07-31T09:15:45;5.03;;;1.80;;
23394;SDS011;11870;53.084;18.206;2023-07-31T09:18:11;4.18;;;1.60;;
23394;SDS011;11870;53.084;18.206;2023-07-31T09:20:39;8.18;;;1.48;;
23394;SDS011;11870;53.084;18.206;2023-07-31T09:23:09;2.63;;;1.40;;
23394;SDS011;11870;53.084;18.206;2023-07-31T09:25:37;4.78;;;1.85;;
23394;SDS011;11870;53.084;18.206;2023-07-31T09:28:05;3.97;;;1.75;;
23394;SDS011;11870;53.084;18.206;2023-07-31T09:33:15;3.40;;;1.70;;
23394;SDS011;11870;53.084;18.206;2023-07-31T09:35:42;2.67;;;1.40;;
23394;SDS011;11870;53.084;18.206;2023-07-31T09:38:09;2.70;;;1.50;;
23394;SDS011;11870;53.084;18.206;2023-07-31T09:40:36;5.22;;;1.40;;
23394;SDS011;11870;53.084;18.206;2023-07-31T09:43:11;4.60;;;1.80;;
23394;SDS011;11870;53.084;18.206;2023-07-31T09:45:39;2.72;;;1.52;;
23394;SDS011;11870;53.084;18.206;2023-07-31T09:48:14;4.90;;;1.50;;
23394;SDS011;11870;53.084;18.206;2023-07-31T09:50:43;2.55;;;1.40;;
23394;SDS011;11870;53.084;18.206;2023-07-31T09:53:11;3.80;;;1.60;;
23394;SDS011;11870;53.084;18.206;2023-07-31T09:55:38;3.28;;;1.70;;
23394;SDS011;11870;53.084;18.206;2023-07-31T09:58:06;6.07;;;1.90;;
23394;SDS011;11870;53.084;18.206;2023-07-31T10:00:33;4.13;;;1.60;;
23394;SDS011;11870;53.084;18.206;2023-07-31T10:03:06;4.25;;;1.70;;
23394;SDS011;11870;53.084;18.206;2023-07-31T10:05:42;7.55;;;1.60;;
23394;SDS011;11870;53.084;18.206;2023-07-31T10:08:15;6.75;;;2.42;;
23394;SDS011;11870;53.084;18.206;2023-07-31T10:10:44;7.75;;;2.42;;
23394;SDS011;11870;53.084;18.206;2023-07-31T10:13:11;5.30;;;2.33;;
23394;SDS011;11870;53.084;18.206;2023-07-31T10:15:39;3.42;;;2.00;;
23394;SDS011;11870;53.084;18.206;2023-07-31T10:18:10;6.13;;;2.28;;
23394;SDS011;11870;53.084;18.206;2023-07-31T10:20:37;5.57;;;2.30;;
23394;SDS011;11870;53.084;18.206;2023-07-31T10:23:03;5.57;;;2.33;;
23394;SDS011;11870;53.084;18.206;2023-07-31T10:25:30;6.25;;;2.65;;
23394;SDS011;11870;53.084;18.206;2023-07-31T10:27:58;4.85;;;2.40;;
23394;SDS011;11870;53.084;18.206;2023-07-31T10:30:26;5.00;;;2.55;;
23394;SDS011;11870;53.084;18.206;2023-07-31T10:32:54;6.28;;;2.33;;
23394;SDS011;11870;53.084;18.206;2023-07-31T10:35:23;4.13;;;2.05;;
23394;SDS011;11870;53.084;18.206;2023-07-31T10:37:49;3.97;;;2.13;;
23394;SDS011;11870;53.084;18.206;2023-07-31T10:40:19;6.88;;;2.30;;
23394;SDS011;11870;53.084;18.206;2023-07-31T10:42:53;3.80;;;1.95;;
23394;SDS011;11870;53.084;18.206;2023-07-31T10:45:24;3.92;;;2.10;;
23394;SDS011;11870;53.084;18.206;2023-07-31T10:48:03;2.65;;;2.05;;
23394;SDS011;11870;53.084;18.206;2023-07-31T10:50:38;4.00;;;1.88;;
23394;SDS011;11870;53.084;18.206;2023-07-31T10:53:10;5.95;;;2.92;;
23394;SDS011;11870;53.084;18.206;2023-07-31T10:55:51;4.63;;;2.05;;
23394;SDS011;11870;53.084;18.206;2023-07-31T10:58:18;4.20;;;1.80;;
23394;SDS011;11870;53.084;18.206;2023-07-31T11:00:46;3.65;;;1.77;;
23394;SDS011;11870;53.084;18.206;2023-07-31T11:03:16;5.28;;;2.08;;
23394;SDS011;11870;53.084;18.206;2023-07-31T11:05:50;6.45;;;2.55;;
23394;SDS011;11870;53.084;18.206;2023-07-31T11:08:19;2.80;;;2.10;;
23394;SDS011;11870;53.084;18.206;2023-07-31T11:10:46;6.57;;;2.10;;
23394;SDS011;11870;53.084;18.206;2023-07-31T11:13:13;4.07;;;2.00;;
23394;SDS011;11870;53.084;18.206;2023-07-31T11:15:40;5.82;;;1.95;;
23394;SDS011;11870;53.084;18.206;2023-07-31T11:18:06;5.28;;;2.00;;
23394;SDS011;11870;53.084;18.206;2023-07-31T11:20:33;3.50;;;2.00;;
23394;SDS011;11870;53.084;18.206;2023-07-31T11:23:05;5.90;;;1.85;;
23394;SDS011;11870;53.084;18.206;2023-07-31T11:25:33;3.25;;;1.90;;
23394;SDS011;11870;53.084;18.206;2023-07-31T11:28:09;4.65;;;1.70;;
23394;SDS011;11870;53.084;18.206;2023-07-31T11:30:36;5.07;;;2.00;;
23394;SDS011;11870;53.084;18.206;2023-07-31T11:33:04;3.65;;;1.70;;
23394;SDS011;11870;53.084;18.206;2023-07-31T11:35:31;6.10;;;1.55;;
23394;SDS011;11870;53.084;18.206;2023-07-31T11:37:59;3.08;;;1.60;;
23394;SDS011;11870;53.084;18.206;2023-07-31T11:40:26;6.80;;;1.70;;
23394;SDS011;11870;53.084;18.206;2023-07-31T11:42:56;6.05;;;1.73;;
23394;SDS011;11870;53.084;18.206;2023-07-31T11:45:26;6.80;;;1.90;;
23394;SDS011;11870;53.084;18.206;2023-07-31T11:47:56;3.47;;;1.63;;
23394;SDS011;11870;53.084;18.206;2023-07-31T11:50:23;5.35;;;1.40;;
23394;SDS011;11870;53.084;18.206;2023-07-31T11:53:00;3.63;;;1.83;;
23394;SDS011;11870;53.084;18.206;2023-07-31T11:55:30;4.88;;;1.40;;
23394;SDS011;11870;53.084;18.206;2023-07-31T11:57:57;3.63;;;1.40;;
23394;SDS011;11870;53.084;18.206;2023-07-31T12:00:25;2.63;;;1.73;;
23394;SDS011;11870;53.084;18.206;2023-07-31T12:02:51;5.20;;;1.92;;
23394;SDS011;11870;53.084;18.206;2023-07-31T12:05:19;3.25;;;1.92;;
23394;SDS011;11870;53.084;18.206;2023-07-31T12:10:25;5.97;;;1.80;;
23394;SDS011;11870;53.084;18.206;2023-07-31T12:12:56;4.03;;;1.73;;
23394;SDS011;11870;53.084;18.206;2023-07-31T12:15:40;5.75;;;1.70;;
23394;SDS011;11870;53.084;18.206;2023-07-31T12:18:13;3.25;;;1.50;;
23394;SDS011;11870;53.084;18.206;2023-07-31T12:20:49;3.13;;;1.70;;
23394;SDS011;11870;53.084;18.206;2023-07-31T12:23:28;4.75;;;1.77;;
23394;SDS011;11870;53.084;18.206;2023-07-31T12:26:03;5.80;;;1.60;;
23394;SDS011;11870;53.084;18.206;2023-07-31T12:28:30;3.58;;;1.70;;
23394;SDS011;11870;53.084;18.206;2023-07-31T12:31:02;2.70;;;1.58;;
23394;SDS011;11870;53.084;18.206;2023-07-31T12:33:31;4.05;;;1.42;;
23394;SDS011;11870;53.084;18.206;2023-07-31T12:35:58;2.60;;;1.50;;
23394;SDS011;11870;53.084;18.206;2023-07-31T12:38:25;3.55;;;1.60;;
23394;SDS011;11870;53.084;18.206;2023-07-31T12:40:52;3.08;;;1.45;;
23394;SDS011;11870;53.084;18.206;2023-07-31T12:43:17;2.28;;;1.40;;
23394;SDS011;11870;53.084;18.206;2023-07-31T12:45:43;1.70;;;1.27;;
23394;SDS011;11870;53.084;18.206;2023-07-31T12:48:09;3.08;;;1.70;;
23394;SDS011;11870;53.084;18.206;2023-07-31T12:50:35;3.47;;;1.50;;
23394;SDS011;11870;53.084;18.206;2023-07-31T12:53:02;2.75;;;1.70;;
23394;SDS011;11870;53.084;18.206;2023-07-31T12:55:33;3.75;;;1.63;;
23394;SDS011;11870;53.084;18.206;2023-07-31T12:58:02;2.25;;;1.55;;
23394;SDS011;11870;53.084;18.206;2023-07-31T13:00:31;3.92;;;1.40;;
23394;SDS011;11870;53.084;18.206;2023-07-31T13:02:57;1.73;;;1.40;;
23394;SDS011;11870;53.084;18.206;2023-07-31T13:05:24;2.47;;;1.50;;
23394;SDS011;11870;53.084;18.206;2023-07-31T13:07:50;3.05;;;1.60;;
23394;SDS011;11870;53.084;18.206;2023-07-31T13:10:16;2.92;;;1.80;;
23394;SDS011;11870;53.084;18.206;2023-07-31T13:12:42;4.18;;;1.83;;
23394;SDS011;11870;53.084;18.206;2023-07-31T13:15:08;3.60;;;2.00;;
23394;SDS011;11870;53.084;18.206;2023-07-31T13:17:35;3.08;;;1.80;;
23394;SDS011;11870;53.084;18.206;2023-07-31T13:20:02;2.47;;;1.83;;
23394;SDS011;11870;53.084;18.206;2023-07-31T13:22:28;10.38;;;2.35;;
23394;SDS011;11870;53.084;18.206;2023-07-31T13:24:55;2.00;;;1.80;;
23394;SDS011;11870;53.084;18.206;2023-07-31T13:27:21;2.08;;;1.60;;
23394;SDS011;11870;53.084;18.206;2023-07-31T13:29:48;2.90;;;1.50;;
23394;SDS011;11870;53.084;18.206;2023-07-31T13:32:15;2.80;;;1.80;;
23394;SDS011;11870;53.084;18.206;2023-07-31T13:34:41;5.80;;;2.20;;
23394;SDS011;11870;53.084;18.206;2023-07-31T13:37:07;5.00;;;1.88;;
23394;SDS011;11870;53.084;18.206;2023-07-31T13:39:34;2.28;;;1.58;;
23394;SDS011;11870;53.084;18.206;2023-07-31T13:42:00;2.92;;;1.70;;
23394;SDS011;11870;53.084;18.206;2023-07-31T13:44:26;2.47;;;1.67;;
23394;SDS011;11870;53.084;18.206;2023-07-31T13:46:52;2.47;;;1.80;;
23394;SDS011;11870;53.084;18.206;2023-07-31T13:49:18;2.72;;;1.63;;
23394;SDS011;11870;53.084;18.206;2023-07-31T13:51:44;2.35;;;1.70;;
23394;SDS011;11870;53.084;18.206;2023-07-31T13:54:10;3.83;;;1.85;;
23394;SDS011;11870;53.084;18.206;2023-07-31T13:56:37;2.75;;;1.90;;
23394;SDS011;11870;53.084;18.206;2023-07-31T13:59:03;4.32;;;2.25;;
23394;SDS011;11870;53.084;18.206;2023-07-31T14:01:29;3.17;;;1.60;;
23394;SDS011;11870;53.084;18.206;2023-07-31T14:03:56;4.45;;;1.70;;
23394;SDS011;11870;53.084;18.206;2023-07-31T14:06:22;2.90;;;2.00;;
23394;SDS011;11870;53.084;18.206;2023-07-31T14:08:48;3.20;;;1.60;;
23394;SDS011;11870;53.084;18.206;2023-07-31T14:11:13;3.28;;;1.75;;
23394;SDS011;11870;53.084;18.206;2023-07-31T14:13:40;5.28;;;1.90;;
23394;SDS011;11870;53.084;18.206;2023-07-31T14:16:06;2.85;;;1.50;;
23394;SDS011;11870;53.084;18.206;2023-07-31T14:18:32;2.50;;;1.73;;
23394;SDS011;11870;53.084;18.206;2023-07-31T14:20:58;2.38;;;1.60;;
23394;SDS011;11870;53.084;18.206;2023-07-31T14:23:24;4.05;;;1.60;;
23394;SDS011;11870;53.084;18.206;2023-07-31T14:25:50;2.15;;;1.60;;
23394;SDS011;11870;53.084;18.206;2023-07-31T14:28:16;2.42;;;1.77;;
23394;SDS011;11870;53.084;18.206;2023-07-31T14:30:41;3.83;;;1.70;;
23394;SDS011;11870;53.084;18.206;2023-07-31T14:33:08;2.20;;;1.70;;
23394;SDS011;11870;53.084;18.206;2023-07-31T14:35:34;4.60;;;1.63;;
23394;SDS011;11870;53.084;18.206;2023-07-31T14:38:01;5.88;;;2.00;;
23394;SDS011;11870;53.084;18.206;2023-07-31T14:40:27;5.90;;;1.70;;
23394;SDS011;11870;53.084;18.206;2023-07-31T14:42:53;4.88;;;1.83;;
23394;SDS011;11870;53.084;18.206;2023-07-31T14:45:19;4.13;;;1.60;;
23394;SDS011;11870;53.084;18.206;2023-07-31T14:47:45;4.18;;;2.13;;